Latest Coastal Weather Observations for Robe Airport

IDS60701

Issued at 5:21 pm CST Friday 29 July 2016 (issued every 10 minutes, with the page automatically refreshed every 10 minutes)

About coastal observations | Map of coastal stations | Coastal observations for SA | Marine services | Other Formats
Station Details ID: 026105 Name: ROBE AIRFIELD Lat: -37.18 Lon: 139.81 Height: 3.0 m
Data from the previous 72 hours. | See also: Recent months at Robe Airport
Date/Time
CST
Temp
°C
Wind Pressure Rain since
9am
mm
Weather Cloud Vis
km
Sea
Height
m
Swell
Dir  Spd
kts
Gust
kts
hPa Trend Height
m
Period
s
Dir
29/05:00pm 13.8 W 3 5 1021.1 - 0.8 - - - - - - -
29/04:30pm 14.5 W 7 10 1021.1 - 0.8 - - - - - - -
29/04:00pm 14.5 W 7 10 1020.9 - 0.8 - - - - - - -
29/03:30pm 14.3 W 7 11 1021.1 - 0.8 - - - - - - -
29/03:00pm 14.1 WNW 6 12 1021.0 - 0.8 - - - - - - -
29/02:30pm 13.6 WNW 6 10 1021.0 - 0.8 - - - - - - -
29/02:00pm 13.4 W 7 12 1021.2 - 0.8 - - - - - - -
29/01:30pm 13.5 WSW 6 9 1021.4 - 0.8 - - - - - - -
29/01:00pm 13.9 SW 7 10 1021.4 - 0.6 - - - - - - -
29/12:30pm 13.8 SW 5 10 1021.8 - 0.6 - - - - - - -
29/12:00pm 14.0 WSW 5 9 1022.2 - 0.6 Recent precip. - - - - - -
29/11:30am 14.3 W 7 12 1022.3 - 0.2 - - - - - - -
29/11:00am 13.9 WSW 6 12 1022.5 - 0.2 - - - - - - -
29/10:30am 13.9 W 6 12 1022.8 - 0.2 - - - - - - -
29/10:00am 12.9 W 8 17 1022.8 - 0.2 - - - - - - -
29/09:30am 13.2 W 8 17 1022.7 - 0.2 - - - - - - -
29/09:00am 13.6 W 5 9 1022.7 - 3.2 - - - - - - -
29/08:30am 13.2 W 5 8 1022.6 - 3.2 - - - - - - -
29/08:00am 12.9 W 5 7 1022.5 - 3.2 - - - - - - -
29/07:30am 12.8 W 5 8 1022.2 - 3.2 - - - - - - -
29/07:00am 12.8 W 5 9 1022.1 - 3.2 - - - - - - -
29/06:30am 12.8 W 8 13 1022.0 - 3.2 - - - - - - -
29/06:00am 12.5 W 6 10 1021.8 - 3.2 - - - - - - -
29/05:30am 12.4 WNW 7 12 1021.7 - 3.2 - - - - - - -
29/05:00am 12.2 WNW 8 12 1021.6 - 3.2 - - - - - - -
29/04:30am 12.4 WNW 9 15 1021.4 - 3.2 - - - - - - -
29/04:00am 12.6 W 8 13 1021.4 - 2.6 - - - - - - -
29/03:30am 12.6 WNW 11 16 1021.5 - 2.6 - - - - - - -
29/03:00am 12.5 WNW 12 18 1021.5 - 2.6 Rain - - - - - -
29/02:30am 12.4 WNW 11 19 1022.0 - 2.4 - - - - - - -
29/02:00am 12.4 WNW 11 17 1022.0 - 2.2 - - - - - - -
29/01:30am 12.4 WNW 11 17 1022.0 - 2.0 - - - - - - -
29/01:00am 12.6 WNW 11 15 1022.2 - 2.0 - - - - - - -
29/12:30am 12.4 NW 12 19 1022.5 - 1.8 - - - - - - -
29/12:00am 12.4 NW 11 16 1022.5 - 1.4 - - - - - - -
 
Date/Time
CST
Temp
°C
Wind Pressure Rain since
9am
mm
Weather Cloud Vis
km
Sea
Height
m
Swell
Dir  Spd
kts
Gust
kts
hPa Trend Height
m
Period
s
Dir
28/11:30pm 12.4 WNW 11 14 1022.7 - 1.4 - - - - - - -
28/11:00pm 12.4 WNW 11 19 1023.1 - 1.4 - - - - - - -
28/10:30pm 12.3 NW 11 15 1023.1 - 0.8 - - - - - - -
28/10:00pm 12.2 WNW 10 16 1023.3 - 0.8 - - - - - - -
28/09:30pm 12.4 WNW 7 12 1023.7 - 0.4 - - - - - - -
28/09:00pm 12.3 NW 12 18 1023.6 - 0.4 Recent precip. - - - - - -
28/08:30pm 12.4 WNW 10 14 1023.9 - 0.2 - - - - - - -
28/08:00pm 12.7 NW 11 16 1023.9 - 0.0 - - - - - - -
28/07:30pm 12.4 NW 12 19 1024.1 - 0.0 - - - - - - -
28/07:00pm 13.4 NW 10 15 1024.2 - 0.0 - - - - - - -
28/06:30pm 13.4 WNW 11 15 1024.1 - 0.0 - - - - - - -
28/06:00pm 13.4 WNW 11 19 1024.1 - 0.0 - - - - - - -
28/05:30pm 13.2 NW 11 17 1023.9 - 0.0 - - - - - - -
28/05:00pm 13.3 NW 9 12 1023.8 - 0.0 - - - - - - -
28/04:30pm 13.8 WNW 10 14 1023.9 - 0.0 - - - - - - -
28/04:00pm 14.1 WNW 10 16 1024.0 - 0.0 - - - - - - -
28/03:30pm 14.1 WNW 11 15 1024.2 - 0.0 - - - - - - -
28/03:00pm 14.6 WNW 11 16 1024.1 - 0.0 - - - - - - -
28/02:30pm 14.3 WNW 11 16 1024.2 - 0.0 - - - - - - -
28/02:00pm 14.8 WNW 12 18 1024.1 - 0.0 - - - - - - -
28/01:30pm 14.8 WNW 11 17 1024.3 - 0.0 - - - - - - -
28/01:00pm 14.8 WNW 11 16 1024.7 - 0.0 - - - - - - -
28/12:30pm 14.9 NW 11 15 1025.0 - 0.0 - - - - - - -
28/12:00pm 15.5 WNW 13 20 1025.2 - 0.0 - - - - - - -
28/11:30am 15.4 NW 12 17 1025.4 - 0.0 - - - - - - -
28/11:00am 14.7 WNW 12 17 1025.6 - 0.0 - - - - - - -
28/10:30am 15.4 WNW 9 14 1025.7 - 0.0 - - - - - - -
28/10:00am 14.8 W 12 17 1025.7 - 0.0 - - - - - - -
28/09:30am 14.1 WNW 12 16 1025.6 - 0.0 - - - - - - -
28/09:00am 13.7 WNW 11 15 1025.5 - 1.2 - - - - - - -
28/08:30am 13.4 WNW 9 13 1025.4 - 1.2 - - - - - - -
28/08:00am 13.0 WNW 9 14 1025.0 - 1.2 - - - - - - -
28/07:30am 12.8 WNW 7 13 1024.7 - 1.2 - - - - - - -
28/07:00am 12.7 WNW 8 14 1024.6 - 1.2 - - - - - - -
28/06:30am 12.7 W 10 16 1024.5 - 1.2 - - - - - - -
28/06:00am 12.4 W 6 9 1024.5 - 1.2 - - - - - - -
28/05:30am 12.2 W 7 11 1024.3 - 1.2 - - - - - - -
28/05:00am 11.7 W 12 19 1024.5 - 1.2 - - - - - - -
28/04:30am 11.9 W 10 16 1024.2 - 1.2 - - - - - - -
28/04:00am 12.2 W 8 14 1024.0 - 1.2 - - - - - - -
28/03:30am 11.9 W 7 13 1023.9 - 1.2 - - - - - - -
28/03:00am 11.4 WSW 8 15 1024.1 - 1.2 - - - - - - -
28/02:30am 11.7 WNW 11 20 1024.2 - 1.2 - - - - - - -
28/02:00am 11.8 W 7 13 1024.2 - 1.2 - - - - - - -
28/01:30am 11.2 WNW 9 18 1024.2 - 1.2 - - - - - - -
28/01:00am 11.4 W 8 14 1024.1 - 1.2 - - - - - - -
28/12:30am 10.9 W 8 15 1024.1 - 1.2 - - - - - - -
28/12:00am 10.8 W 5 8 1024.1 - 1.2 Recent precip. - - - - - -
 
Date/Time
CST
Temp
°C
Wind Pressure Rain since
9am
mm
Weather Cloud Vis
km
Sea
Height
m
Swell
Dir  Spd
kts
Gust
kts
hPa Trend Height
m
Period
s
Dir
27/11:30pm 10.8 W 9 17 1024.4 - 1.0 - - - - - - -
27/11:00pm 11.1 WNW 8 13 1024.3 - 0.4 - - - - - - -
27/10:30pm 10.7 W 4 7 1024.3 - 0.4 - - - - - - -
27/10:00pm 10.7 W 7 13 1024.5 - 0.4 - - - - - - -
27/09:30pm 10.4 W 8 13 1024.4 - 0.4 - - - - - - -
27/09:00pm 10.9 W 9 15 1024.5 - 0.0 - - - - - - -
27/08:30pm 12.1 W 8 13 1024.5 - 0.0 - - - - - - -
27/08:00pm 12.1 W 8 15 1024.4 - 0.0 - - - - - - -
27/07:30pm 12.1 WSW 7 12 1024.1 - 0.0 - - - - - - -
27/07:00pm 12.0 W 7 12 1023.7 - 0.0 - - - - - - -
27/06:30pm 11.9 W 8 16 1023.4 - 0.0 - - - - - - -
27/06:00pm 11.8 W 8 13 1023.1 - 0.0 - - - - - - -
27/05:30pm 11.9 WSW 7 15 1022.7 - 0.0 - - - - - - -
27/05:00pm 11.9 WNW 10 18 1022.5 - 0.0 - - - - - - -
27/04:30pm 11.8 WSW 7 11 1022.6 - 0.0 - - - - - - -
27/04:00pm 11.9 W 10 16 1022.4 - 0.0 - - - - - - -
27/03:30pm 13.0 WSW 9 16 1022.2 - 0.0 - - - - - - -
27/03:00pm 12.4 WSW 10 19 1021.9 - 0.0 - - - - - - -
27/02:30pm 12.5 WSW 8 13 1021.6 - 0.0 - - - - - - -
27/02:00pm 12.7 WSW 9 17 1021.4 - 0.0 - - - - - - -
27/01:30pm 13.1 WSW 10 18 1021.2 - 0.0 - - - - - - -
27/01:00pm 12.6 WSW 11 17 1021.0 - 0.0 - - - - - - -
27/12:30pm 12.8 WSW 9 17 1020.9 - 0.0 - - - - - - -
27/12:00pm 12.6 SW 10 17 1021.0 - 0.0 - - - - - - -
27/11:30am 12.3 SW 10 16 1021.0 - 0.0 - - - - - - -
27/11:00am 11.9 SW 11 17 1021.0 - 0.0 - - - - - - -
27/10:30am 12.5 SW 10 16 1020.7 - 0.0 - - - - - - -
27/10:00am 11.5 SW 10 16 1020.2 - 0.0 - - - - - - -
27/09:30am 11.1 SW 12 17 1019.7 - 0.0 - - - - - - -
27/09:00am 10.5 SW 11 15 1019.2 - 19.6 - - - - - - -
27/08:30am 10.4 SW 13 19 1018.9 - 19.6 - - - - - - -
27/08:00am 9.8 SW 9 13 1018.5 - 19.6 - - - - - - -
27/07:30am 8.9 SW 8 15 1017.9 - 19.6 - - - - - - -
27/07:00am 9.5 SSW 12 18 1017.5 - 19.4 - - - - - - -
27/06:30am 9.8 SSW 12 23 1016.6 - 19.4 - - - - - - -
27/06:00am 9.6 SW 16 27 1016.0 - 19.4 - - - - - - -
27/05:52am 10.2 SW 15 27 1015.7 - 19.4 - - - - - - -
27/05:30am 9.8 SSW 15 21 1015.4 - 19.4 - - - - - - -
27/05:00am 10.2 SSW 16 24 1014.5 - 19.4 - - - - - - -
27/04:30am 9.9 SSW 16 26 1013.7 - 19.4 - - - - - - -
27/04:00am 10.0 SSW 15 26 1012.9 - 19.4 - - - - - - -
27/03:30am 10.0 SSW 20 31 1012.0 - 19.4 - - - - - - -
27/03:22am 10.3 SSW 19 30 1011.9 - 19.4 - - - - - - -
27/03:00am 10.2 SW 20 28 1011.5 - 19.4 Recent precip. - - - - - -
27/02:30am 10.7 SW 19 29 1010.7 - 19.4 - - - - - - -
27/02:23am 11.2 SW 15 27 1010.6 - 19.2 - - - - - - -
27/02:00am 11.0 SW 17 25 1009.9 - 19.2 - - - - - - -
27/01:39am 11.3 SW 15 25 1009.4 - 19.2 - - - - - - -
27/01:30am 11.6 SW 17 23 1009.2 - 19.2 - - - - - - -
27/01:00am 11.3 SW 15 23 1008.6 - 19.2 - - - - - - -
27/12:30am 10.6 SW 16 27 1008.0 - 19.2 - - - - - - -
27/12:26am 11.1 SW 15 27 1008.0 - 19.2 - - - - - - -
27/12:00am 11.9 WSW 10 19 1007.4 - 18.8 - - - - - - -
 
Date/Time
CST
Temp
°C
Wind Pressure Rain since
9am
mm
Weather Cloud Vis
km
Sea
Height
m
Swell
Dir  Spd
kts
Gust
kts
hPa Trend Height
m
Period
s
Dir
26/11:30pm 11.7 SW 12 18 1006.9 - 18.8 - - - - - - -
26/11:00pm 11.8 SW 13 22 1006.4 - 18.8 - - - - - - -
26/10:30pm 11.3 WSW 14 24 1005.9 - 18.8 - - - - - - -
26/10:00pm 11.1 WSW 13 20 1005.3 - 18.8 - - - - - - -
26/09:31pm 11.2 SW 15 25 1004.7 - 18.6 - - - - - - -
26/09:30pm 11.3 SW 14 25 1004.7 - 18.6 - - - - - - -
26/09:05pm 10.6 WSW 15 26 1004.3 - 18.6 - - - - - - -
26/09:00pm 11.2 WSW 14 26 1004.3 - 18.6 Recent precip. - - - - - -
26/08:58pm 11.3 WSW 15 26 1004.1 - 18.6 - - - - - - -
26/08:30pm 10.7 SW 11 23 1003.6 - 18.6 - - - - - - -
26/08:00pm 10.4 WSW 12 20 1002.8 - 18.4 - - - - - - -
26/07:30pm 10.4 WNW 6 10 1002.4 - 17.8 - - - - - - -
26/07:00pm 10.2 WNW 9 15 1002.2 - 17.4 - - - - - - -
26/06:30pm 9.9 WNW 10 16 1002.1 - 17.4 - - - - - - -
26/06:18pm 10.6 NW 19 28 1002.2 - 17.2 - - - - - - -
26/06:00pm 11.0 NNW 20 28 1001.8 - 14.6 Rain - - - - - -
26/05:33pm 10.9 NNW 20 30 1001.9 - 14.4 - - - - - - -
26/05:30pm 11.0 NNW 20 29 1002.0 - 14.4 - - - - - - -

Other Formats:

Comma delimited format used in spreadsheet applications
http://www.bom.gov.au/fwo/IDS60701/IDS60701.95816.axf

JavaScript Object Notation format (JSON) in row-major order
http://www.bom.gov.au/fwo/IDS60701/IDS60701.95816.json